Time;durP1;ratioP1;P1;durP2;ratioP2;P2;SDS_P1;SDS_P2;PMS_P1;PMS_P2;Temp;Humidity;BMP_temperature;BMP_pressure;BME280_temperature;BME280_humidity;BME280_pressure;Samples;Min_cycle;Max_cycle;Signal;HPM_P1;HPM_P2
2023/05/20 00:02:10;;;;;;;11.03;8.97;;;;;;;-144.30;85.05;85515.72;5070320;28;20601;-52
2023/05/20 00:04:37;;;;;;;10.63;9.20;;;;;;;-144.30;85.75;85549.50;5070217;28;20562;-52
2023/05/20 00:07:04;;;;;;;11.37;9.47;;;;;;;-144.30;85.83;85555.47;5069993;28;20290;-56
2023/05/20 00:09:31;;;;;;;11.33;9.20;;;;;;;-144.30;86.58;85547.53;5069945;28;20202;-56
2023/05/20 00:11:59;;;;;;;12.43;9.93;;;;;;;-144.30;87.10;85561.44;5070200;28;20227;-56
2023/05/20 00:14:26;;;;;;;12.60;10.90;;;;;;;-144.30;87.33;85489.88;5069870;28;20231;-56
2023/05/20 00:16:52;;;;;;;20.67;13.87;;;;;;;-144.30;88.01;85579.31;5069807;28;20199;-56
2023/05/20 00:19:19;;;;;;;14.67;11.90;;;;;;;-144.30;88.23;85555.47;5069876;28;20196;-51
2023/05/20 00:21:46;;;;;;;14.37;11.23;;;;;;;-144.30;88.39;85559.44;5069768;28;20315;-52
2023/05/20 00:24:13;;;;;;;14.63;10.40;;;;;;;-144.30;88.57;85591.25;5070216;28;20200;-55
2023/05/20 00:26:40;;;;;;;16.27;10.87;;;;;;;-144.30;88.81;85573.38;5069882;28;20584;-55
2023/05/20 00:29:08;;;;;;;11.83;10.13;;;;;;;-144.30;88.45;85579.31;5069964;28;20195;-52
2023/05/20 00:31:35;;;;;;;11.57;9.03;;;;;;;-144.30;88.38;85587.28;5072373;28;20192;-56
2023/05/20 00:34:02;;;;;;;14.60;10.57;;;;;;;-144.30;88.62;85573.38;5073892;28;20204;-55
2023/05/20 00:36:30;;;;;;;13.70;9.87;;;;;;;-144.30;88.30;85575.34;5074107;28;20199;-55
2023/05/20 00:38:57;;;;;;;10.73;9.73;;;;;;;-144.30;88.24;85561.44;5073824;28;20200;-52
2023/05/20 00:41:23;;;;;;;11.83;9.37;;;;;;;-144.30;88.21;85587.28;5073765;28;20695;-51
2023/05/20 00:43:53;;;;;;;12.67;10.60;;;;;;;-144.30;88.57;85599.22;5073675;28;20318;-54
2023/05/20 00:46:22;;;;;;;14.10;10.10;;;;;;;-144.30;89.05;85557.47;5073782;28;20592;-56
2023/05/20 00:48:50;;;;;;;13.80;11.07;;;;;;;-144.30;89.48;85587.28;5073666;28;20210;-51
2023/05/20 00:51:17;;;;;;;11.77;10.57;;;;;;;-144.30;89.66;85611.13;5073472;28;20690;-56
2023/05/20 00:53:44;;;;;;;11.53;10.17;;;;;;;-144.30;90.02;85565.41;5073507;28;20199;-56
2023/05/20 00:56:12;;;;;;;12.43;11.17;;;;;;;-144.30;90.58;85587.28;5073526;28;20199;-56
2023/05/20 00:58:39;;;;;;;15.80;10.70;;;;;;;-144.30;90.92;85593.25;5073271;28;20196;-56
2023/05/20 01:01:06;;;;;;;12.23;10.00;;;;;;;-144.30;91.44;85627.03;5073406;28;20310;-55
2023/05/20 01:03:35;;;;;;;11.57;10.47;;;;;;;-144.30;91.47;85579.31;5073009;28;20206;-55
2023/05/20 01:06:02;;;;;;;12.23;10.90;;;;;;;-144.30;91.76;85621.06;5073306;28;20200;-53
2023/05/20 01:08:30;;;;;;;19.90;13.57;;;;;;;-144.30;91.83;85631.03;5073322;28;20204;-56
2023/05/20 01:11:02;;;;;;;15.80;11.87;;;;;;;-144.30;92.04;85613.13;5073189;28;20184;-52
2023/05/20 01:13:33;;;;;;;12.83;11.17;;;;;;;-144.30;92.04;85601.19;5073128;28;20939;-53
2023/05/20 01:16:02;;;;;;;14.20;10.67;;;;;;;-144.30;92.43;85640.97;5073259;28;20196;-53
2023/05/20 01:18:32;;;;;;;13.40;10.77;;;;;;;-144.30;92.47;85615.13;5072994;28;20196;-52
2023/05/20 01:21:02;;;;;;;12.33;10.97;;;;;;;-144.30;92.31;85595.22;5072911;28;20220;-52
2023/05/20 01:23:38;;;;;;;13.63;10.93;;;;;;;-144.30;92.67;85646.91;5073107;28;20250;-55
2023/05/20 01:26:06;;;;;;;16.93;11.53;;;;;;;-144.30;94.24;85615.13;5072887;28;20200;-51
2023/05/20 01:28:33;;;;;;;13.90;11.20;;;;;;;-144.30;94.74;85642.94;5073603;28;20663;-53
2023/05/20 01:31:02;;;;;;;15.00;11.23;;;;;;;-144.30;94.60;85642.94;5072819;28;20192;-56
2023/05/20 01:33:31;;;;;;;15.97;11.50;;;;;;;-144.30;94.89;85672.75;5072891;28;20204;-52
2023/05/20 01:35:59;;;;;;;13.20;11.80;;;;;;;-144.30;95.02;85642.94;5072995;28;20637;-56
2023/05/20 01:38:27;;;;;;;20.07;12.00;;;;;;;-144.30;95.13;85644.94;5072735;28;20578;-51
2023/05/20 01:40:58;;;;;;;17.13;11.83;;;;;;;-144.30;94.60;85650.91;5072553;28;20216;-56
2023/05/20 01:43:26;;;;;;;18.23;11.60;;;;;;;-144.30;94.59;85644.94;5071632;28;20382;-51
2023/05/20 01:45:53;;;;;;;17.40;11.30;;;;;;;-144.30;94.12;85670.78;5072753;28;20200;-56
2023/05/20 01:48:20;;;;;;;13.17;10.77;;;;;;;-144.30;94.17;85698.63;5072513;28;20261;-52
2023/05/20 01:50:47;;;;;;;14.27;10.43;;;;;;;-144.30;93.86;85690.66;5072405;28;20192;-56
2023/05/20 01:53:14;;;;;;;17.10;10.73;;;;;;;-144.30;93.90;85668.78;5072590;28;20561;-56
2023/05/20 01:55:41;;;;;;;11.90;10.60;;;;;;;-144.30;93.51;85678.72;5072265;28;20226;-55
2023/05/20 01:58:09;;;;;;;16.90;10.20;;;;;;;-144.30;93.73;85710.53;5072189;28;20199;-52
2023/05/20 02:00:36;;;;;;;12.00;10.63;;;;;;;-144.30;94.23;85660.84;5072530;28;20265;-55
2023/05/20 02:03:03;;;;;;;12.37;10.97;;;;;;;-144.30;94.42;85710.53;5072455;28;20196;-55
2023/05/20 02:05:30;;;;;;;13.97;10.90;;;;;;;-144.30;94.90;85690.66;5072274;28;20718;-51
2023/05/20 02:07:57;;;;;;;15.53;11.07;;;;;;;-144.30;94.95;85674.75;5072182;28;20664;-52
2023/05/20 02:10:24;;;;;;;12.43;10.63;;;;;;;-144.30;94.92;85730.41;5072007;28;20192;-52
2023/05/20 02:12:51;;;;;;;13.63;10.80;;;;;;;-144.30;95.07;85712.53;5072034;28;20232;-56
2023/05/20 02:15:19;;;;;;;11.67;10.47;;;;;;;-144.30;95.72;85716.50;5071926;28;20311;-53
2023/05/20 02:17:46;;;;;;;13.83;10.83;;;;;;;-144.30;95.69;85722.47;5072044;28;20634;-56
2023/05/20 02:20:13;;;;;;;18.13;11.53;;;;;;;-144.30;95.94;85690.66;5071893;28;20690;-57
2023/05/20 02:22:40;;;;;;;17.93;12.77;;;;;;;-144.30;95.78;85686.69;5071908;28;20672;-55
2023/05/20 02:25:08;;;;;;;17.33;11.47;;;;;;;-144.30;95.59;85716.50;5071858;28;20647;-52
2023/05/20 02:27:35;;;;;;;17.80;12.87;;;;;;;-144.30;95.86;85704.56;5072089;28;20671;-56
2023/05/20 02:30:02;;;;;;;14.77;11.67;;;;;;;-144.30;95.76;85738.38;5071711;28;20231;-55
2023/05/20 02:32:32;;;;;;;15.23;10.83;;;;;;;-144.30;95.57;85726.44;5071823;28;20751;-58
2023/05/20 02:34:59;;;;;;;14.77;11.33;;;;;;;-144.30;95.71;85744.34;5071635;28;20206;-56
2023/05/20 02:37:26;;;;;;;15.77;11.37;;;;;;;-144.30;95.78;85716.50;5071457;28;20561;-56
2023/05/20 02:39:53;;;;;;;18.97;11.33;;;;;;;-144.30;95.72;85718.50;5071392;28;20196;-51
2023/05/20 02:42:20;;;;;;;11.73;10.53;;;;;;;-144.30;95.81;85710.53;5071362;28;20226;-56
2023/05/20 02:44:46;;;;;;;17.33;10.90;;;;;;;-144.30;95.29;85730.41;5071277;28;20198;-51
2023/05/20 02:47:14;;;;;;;14.30;10.50;;;;;;;-144.30;95.25;85766.22;5071309;28;20200;-51
2023/05/20 02:49:42;;;;;;;14.17;10.37;;;;;;;-144.30;94.89;85758.25;5071518;28;20196;-50
2023/05/20 02:52:09;;;;;;;12.63;10.87;;;;;;;-144.30;94.76;85754.28;5071343;28;20203;-52
2023/05/20 02:54:36;;;;;;;11.37;10.17;;;;;;;-144.30;94.48;85732.41;5070223;28;20196;-55
2023/05/20 02:57:06;;;;;;;11.50;9.77;;;;;;;-144.30;94.07;85734.41;5071518;28;20793;-56
2023/05/20 02:59:33;;;;;;;12.33;11.03;;;;;;;-144.30;93.69;85756.28;5071088;28;20295;-55
2023/05/20 03:02:00;;;;;;;14.00;10.77;;;;;;;-144.30;93.88;85746.31;5071039;28;20238;-56
2023/05/20 03:04:26;;;;;;;11.00;10.00;;;;;;;-144.30;93.40;85742.34;5070937;28;20200;-52
2023/05/20 03:06:56;;;;;;;17.00;10.37;;;;;;;-144.30;93.21;85736.38;5070868;28;20206;-57
2023/05/20 03:09:23;;;;;;;12.10;9.67;;;;;;;-144.30;92.81;85754.28;5071055;28;20695;-53
2023/05/20 03:11:50;;;;;;;10.80;9.70;;;;;;;-144.30;92.53;85746.31;5071121;28;20199;-56
2023/05/20 03:14:17;;;;;;;11.47;9.23;;;;;;;-144.30;92.29;85716.50;5070658;28;20231;-56
2023/05/20 03:16:44;;;;;;;12.60;10.73;;;;;;;-144.30;92.13;85744.34;5070772;28;20206;-56
2023/05/20 03:19:11;;;;;;;11.03;9.93;;;;;;;-144.30;92.08;85734.41;5070901;28;20196;-51
2023/05/20 03:21:38;;;;;;;10.17;9.17;;;;;;;-144.30;92.04;85692.66;5070561;28;20250;-52
2023/05/20 03:24:07;;;;;;;11.23;9.77;;;;;;;-144.30;91.38;85714.53;5070529;28;20200;-51
2023/05/20 03:26:36;;;;;;;10.77;9.70;;;;;;;-144.30;90.99;85730.41;5070530;28;20192;-51
2023/05/20 03:29:03;;;;;;;9.80;8.93;;;;;;;-144.30;91.24;85702.59;5070497;28;20302;-55
2023/05/20 03:31:30;;;;;;;11.57;9.90;;;;;;;-144.30;91.00;85708.56;5070520;28;20222;-55
2023/05/20 03:33:57;;;;;;;11.50;10.30;;;;;;;-144.30;90.84;85712.53;5070295;28;20196;-56
2023/05/20 03:36:24;;;;;;;10.80;9.80;;;;;;;-144.30;90.87;85712.53;5070385;28;20196;-56
2023/05/20 03:38:51;;;;;;;11.10;9.87;;;;;;;-144.30;90.15;85722.47;5070264;28;20283;-53
2023/05/20 03:41:19;;;;;;;10.20;9.20;;;;;;;-144.30;90.70;85710.53;5070442;28;20223;-53
2023/05/20 03:43:46;;;;;;;10.70;9.60;;;;;;;-144.30;90.40;85702.59;5070339;28;20206;-56
2023/05/20 03:46:13;;;;;;;10.37;9.37;;;;;;;-144.30;90.29;85714.53;5070301;28;20597;-56
2023/05/20 03:48:40;;;;;;;14.00;9.73;;;;;;;-144.30;91.17;85704.56;5070216;28;20286;-56
2023/05/20 03:51:07;;;;;;;11.60;9.90;;;;;;;-144.30;91.76;85684.69;5063693;28;20191;-51
2023/05/20 03:53:34;;;;;;;14.87;9.97;;;;;;;-144.30;89.60;85589.28;5050065;28;20202;-55
2023/05/20 03:56:01;;;;;;;13.23;9.30;;;;;;;-144.30;86.27;85448.13;5050238;28;20656;-51
2023/05/20 03:58:30;;;;;;;12.53;10.17;;;;;;;-144.30;79.76;85386.50;5050005;28;20204;-55
2023/05/20 04:00:57;;;;;;;10.97;9.73;;;;;;;-144.30;76.87;85418.31;5049890;28;20206;-55
2023/05/20 04:03:24;;;;;;;12.70;10.20;;;;;;;-144.30;77.34;85406.38;5050037;28;20205;-56
2023/05/20 04:05:50;;;;;;;17.47;10.77;;;;;;;-144.30;78.88;85471.97;5050079;28;20712;-56
2023/05/20 04:08:18;;;;;;;12.83;11.40;;;;;;;-144.30;80.50;85507.75;5049982;28;20193;-50
2023/05/20 04:10:46;;;;;;;15.47;11.27;;;;;;;-144.30;82.01;85497.81;5050206;28;20207;-52
2023/05/20 04:13:14;;;;;;;12.37;10.13;;;;;;;-144.30;81.99;85533.59;5061644;28;20210;-51
2023/05/20 04:15:42;;;;;;;14.07;10.03;;;;;;;-144.30;82.03;85523.66;5069595;28;20232;-56
2023/05/20 04:18:10;;;;;;;15.00;10.00;;;;;;;-144.30;80.51;85388.47;5070212;28;20202;-56
2023/05/20 04:20:37;;;;;;;14.77;9.07;;;;;;;-144.30;75.46;85195.66;5070090;28;20595;-55
2023/05/20 04:23:04;;;;;;;9.90;9.00;;;;;;;-144.30;66.10;84959.13;5069810;28;20735;-51
2023/05/20 04:25:31;;;;;;;9.63;8.68;;;;;;;-144.30;58.45;84831.91;5069785;28;20199;-55
2023/05/20 04:27:58;;;;;;;9.48;8.57;;;;;;;-144.30;53.77;84605.31;5069412;28;20691;-53
2023/05/20 04:30:25;;;;;;;9.50;8.60;;;;;;;-144.30;49.48;84386.72;5069845;28;20222;-55
2023/05/20 04:32:54;;;;;;;8.88;8.00;;;;;;;-144.30;45.48;84178.03;5069975;28;20701;-55
2023/05/20 04:35:24;;;;;;;8.82;8.13;;;;;;;-144.30;43.01;84080.66;5069780;28;20206;-52
2023/05/20 04:37:53;;;;;;;8.88;8.00;;;;;;;-144.30;43.14;84191.94;5069873;28;20238;-55
2023/05/20 04:40:21;;;;;;;9.93;8.95;;;;;;;-144.30;46.80;84500.00;5069671;28;20259;-52
2023/05/20 04:42:48;;;;;;;11.40;8.82;;;;;;;-144.30;49.88;84664.94;5069602;28;20227;-52
2023/05/20 04:45:15;;;;;;;11.85;8.90;;;;;;;-144.30;53.68;84839.84;5069941;28;20290;-51
2023/05/20 04:47:43;;;;;;;10.07;9.07;;;;;;;-144.30;56.45;84879.59;5069892;28;20207;-54
2023/05/20 04:50:12;;;;;;;10.77;9.75;;;;;;;-144.30;58.27;84869.66;5069074;28;20192;-51
2023/05/20 04:52:40;;;;;;;15.00;9.75;;;;;;;-144.30;54.07;84905.44;5058080;28;20197;-54
2023/05/20 04:55:09;;;;;;;12.50;8.52;;;;;;;-144.30;47.74;84303.25;5067801;28;20660;-55
2023/05/20 04:57:38;;;;;;;10.05;8.95;;;;;;;-144.30;44.12;84108.50;5068201;28;20200;-56
2023/05/20 05:00:07;;;;;;;9.85;8.25;;;;;;;-144.30;40.83;83854.13;5068245;28;20203;-57
2023/05/20 05:02:34;;;;;;;11.43;8.75;;;;;;;-144.30;38.27;83607.75;5068472;28;20681;-56
2023/05/20 05:05:01;;;;;;;10.75;9.75;;;;;;;-144.30;37.69;83597.81;5069302;28;20730;-51
2023/05/20 05:07:29;;;;;;;9.18;8.38;;;;;;;-144.30;36.96;83522.31;5069421;28;20210;-52
2023/05/20 05:09:56;;;;;;;13.30;9.15;;;;;;;-144.30;36.66;83494.50;5069305;28;20211;-51
2023/05/20 05:12:23;;;;;;;10.95;8.75;;;;;;;-144.30;35.46;83331.59;5067599;28;20262;-52
2023/05/20 05:14:50;;;;;;;17.20;11.57;;;;;;;-144.30;35.58;83303.75;5067373;28;20224;-56
2023/05/20 05:17:17;;;;;;;10.07;9.20;;;;;;;-144.30;35.19;83317.66;5055666;28;20232;-56
2023/05/20 05:19:44;;;;;;;11.23;10.07;;;;;;;-144.30;35.20;83361.38;5052563;28;20224;-52
2023/05/20 05:22:11;;;;;;;9.68;8.75;;;;;;;-144.30;34.96;83307.75;5056718;28;20347;-57
2023/05/20 05:24:40;;;;;;;10.63;8.75;;;;;;;-144.30;34.28;83238.19;5052366;28;20228;-55
2023/05/20 05:27:07;;;;;;;9.50;8.52;;;;;;;-144.30;33.82;83103.13;5052775;28;20321;-56
2023/05/20 05:29:34;;;;;;;10.27;9.23;;;;;;;-144.30;33.06;83051.47;5052583;28;20586;-56
2023/05/20 05:32:01;;;;;;;9.68;8.95;;;;;;;-144.30;33.33;83146.81;5052803;28;20681;-57
2023/05/20 05:34:28;;;;;;;10.77;8.40;;;;;;;-144.30;33.03;83019.69;5052075;28;20220;-56
2023/05/20 05:36:54;;;;;;;9.15;8.45;;;;;;;-144.30;32.66;82938.22;5052245;28;20256;-51
2023/05/20 05:39:21;;;;;;;10.85;9.23;;;;;;;-144.30;31.51;82823.00;5054509;28;20220;-53
2023/05/20 05:41:50;;;;;;;10.23;8.48;;;;;;;-144.30;31.63;82751.50;5068173;28;20629;-56
2023/05/20 05:44:17;;;;;;;9.75;8.38;;;;;;;-144.30;30.42;82465.47;5056071;28;20641;-55
2023/05/20 05:46:43;;;;;;;9.02;8.30;;;;;;;-144.30;29.70;82338.34;5065173;28;20585;-57
2023/05/20 05:49:10;;;;;;;8.23;7.45;;;;;;;-144.30;29.68;82372.13;5051745;28;20325;-56
2023/05/20 05:51:37;;;;;;;8.70;7.97;;;;;;;-144.30;30.95;82729.66;5051922;28;20228;-56
2023/05/20 05:54:04;;;;;;;9.63;8.70;;;;;;;-144.30;31.90;82912.41;5070014;28;20226;-57
2023/05/20 05:56:31;;;;;;;10.13;8.82;;;;;;;-144.30;32.18;82900.47;5067611;28;20232;-57
2023/05/20 05:59:00;;;;;;;10.13;9.05;;;;;;;-144.30;32.24;82884.59;5069884;28;20220;-53
2023/05/20 06:01:26;;;;;;;10.15;8.50;;;;;;;-144.30;31.73;82761.44;5071315;28;20699;-53
2023/05/20 06:03:54;;;;;;;9.52;8.65;;;;;;;-144.30;31.38;82592.59;5071500;28;20258;-57
2023/05/20 06:06:21;;;;;;;11.68;8.55;;;;;;;-144.30;30.51;82453.56;5069003;28;20223;-58
2023/05/20 06:08:47;;;;;;;8.73;7.88;;;;;;;-144.30;30.18;82419.78;5071538;28;20667;-57
2023/05/20 06:11:15;;;;;;;15.68;8.68;;;;;;;-144.30;30.65;82471.44;5071359;28;20259;-58
2023/05/20 06:13:42;;;;;;;9.23;8.35;;;;;;;-144.30;30.60;82477.38;5069566;28;20325;-58
2023/05/20 06:16:11;;;;;;;8.02;7.45;;;;;;;-144.30;30.13;82348.28;5071191;28;20294;-60
2023/05/20 06:18:39;;;;;;;9.68;8.82;;;;;;;-144.30;30.03;82340.34;5071399;28;20255;-60
2023/05/20 06:21:06;;;;;;;11.32;7.65;;;;;;;-144.30;29.53;82328.41;5071169;28;20207;-59
2023/05/20 06:23:33;;;;;;;8.32;7.32;;;;;;;-144.30;29.67;82399.91;5071535;28;20231;-58
2023/05/20 06:26:00;;;;;;;7.97;7.22;;;;;;;-144.30;30.18;82701.84;5069244;28;20215;-58
2023/05/20 06:28:27;;;;;;;9.13;7.60;;;;;;;-144.30;29.93;82423.75;5066845;28;20236;-53
2023/05/20 06:30:55;;;;;;;9.15;8.35;;;;;;;-144.30;30.43;82542.94;5053787;28;20209;-53
2023/05/20 06:33:25;;;;;;;9.02;7.93;;;;;;;-144.30;30.59;82582.66;5052107;28;20691;-55
2023/05/20 06:35:52;;;;;;;9.07;8.07;;;;;;;-144.30;30.01;82576.69;5067555;28;20192;-53
2023/05/20 06:38:19;;;;;;;8.85;8.15;;;;;;;-144.30;30.31;82578.69;5071882;28;20204;-56
2023/05/20 06:40:48;;;;;;;11.23;8.15;;;;;;;-144.30;30.00;82519.09;5058348;28;21085;-57
2023/05/20 06:43:15;;;;;;;8.48;7.68;;;;;;;-144.30;29.66;82701.84;5055631;28;20225;-58
2023/05/20 06:45:42;;;;;;;8.27;7.50;;;;;;;-144.30;29.82;82503.22;5059193;28;20605;-61
2023/05/20 06:48:10;;;;;;;9.95;8.30;;;;;;;-144.30;29.71;82620.41;5067221;28;20204;-57
2023/05/20 06:50:38;;;;;;;11.48;7.97;;;;;;;-144.30;30.29;82834.94;5069108;28;20230;-57
2023/05/20 06:53:05;;;;;;;8.20;7.40;;;;;;;-144.30;30.64;82828.97;5070389;28;20291;-57
2023/05/20 06:55:32;;;;;;;15.25;8.20;;;;;;;-144.30;31.36;82926.31;5054258;28;20211;-57
2023/05/20 06:57:59;;;;;;;7.97;7.22;;;;;;;-144.30;30.95;82916.38;5069055;28;20195;-57
2023/05/20 07:00:26;;;;;;;8.82;7.95;;;;;;;-144.30;31.30;82918.38;5070410;28;20533;-53
2023/05/20 07:02:53;;;;;;;8.68;7.82;;;;;;;-144.30;30.81;82821.03;5069981;28;20250;-52
2023/05/20 07:05:21;;;;;;;9.95;7.93;;;;;;;-144.30;30.97;82749.50;5071551;28;20684;-53
2023/05/20 07:07:49;;;;;;;9.38;8.55;;;;;;;-144.30;30.83;82832.94;5071864;28;20211;-56
2023/05/20 07:10:16;;;;;;;10.85;8.80;;;;;;;-144.30;31.02;82876.66;5068872;28;20587;-57
2023/05/20 07:12:43;;;;;;;10.20;9.20;;;;;;;-144.30;30.84;82848.84;5070572;28;20688;-57
2023/05/20 07:15:11;;;;;;;8.18;7.43;;;;;;;-144.30;30.76;82910.41;5069774;28;20322;-56
2023/05/20 07:17:38;;;;;;;8.98;8.38;;;;;;;-144.30;30.77;82880.63;5070719;28;20203;-58
2023/05/20 07:20:07;;;;;;;8.77;8.02;;;;;;;-144.30;30.62;82823.00;5070920;28;20230;-52
2023/05/20 07:22:33;;;;;;;11.50;8.45;;;;;;;-144.30;30.30;82761.44;5070091;28;20224;-52
2023/05/20 07:25:02;;;;;;;9.75;7.93;;;;;;;-144.30;30.28;82805.13;5070822;28;20284;-57
2023/05/20 07:27:29;;;;;;;8.10;7.43;;;;;;;-144.30;29.86;82797.19;5070506;28;20291;-54
2023/05/20 07:29:56;;;;;;;7.82;6.80;;;;;;;-144.30;29.53;82743.56;5070604;28;20254;-54
2023/05/20 07:32:23;;;;;;;10.85;8.13;;;;;;;-144.30;29.71;82805.13;5070966;28;20641;-53
2023/05/20 07:34:50;;;;;;;10.63;8.52;;;;;;;-144.30;29.69;82797.19;5070811;28;20735;-53
2023/05/20 07:37:17;;;;;;;13.57;12.32;;;;;;;-144.30;29.56;82854.78;5070670;28;20299;-57
2023/05/20 07:39:44;;;;;;;7.95;7.35;;;;;;;-144.30;29.26;82817.06;5070135;28;20199;-58
2023/05/20 07:42:13;;;;;;;17.75;8.60;;;;;;;-144.30;28.90;82606.50;5069871;28;20311;-56
2023/05/20 07:44:40;;;;;;;8.52;7.60;;;;;;;-144.30;28.49;82505.19;5069008;28;20242;-59
2023/05/20 07:47:06;;;;;;;9.38;8.35;;;;;;;-144.30;28.18;82304.59;5069979;28;25067;-56
2023/05/20 07:49:34;;;;;;;11.07;7.82;;;;;;;-144.30;28.35;82536.97;5070379;28;20599;-59
2023/05/20 07:52:01;;;;;;;8.00;7.32;;;;;;;-144.30;28.31;82533.00;5070350;28;20209;-58
2023/05/20 07:54:28;;;;;;;12.77;10.13;;;;;;;-144.30;28.46;82535.00;5070275;28;20206;-52
2023/05/20 07:56:55;;;;;;;9.68;7.40;;;;;;;-144.30;28.29;82515.13;5070679;28;20296;-60
2023/05/20 07:59:24;;;;;;;8.43;7.82;;;;;;;-144.30;27.88;82382.03;5070437;28;20292;-58
2023/05/20 08:01:51;;;;;;;8.57;7.72;;;;;;;-144.30;27.41;82219.19;5070433;28;20734;-58
2023/05/20 08:04:18;;;;;;;9.00;8.20;;;;;;;-144.30;27.15;82131.78;5070174;28;20312;-54
2023/05/20 08:06:45;;;;;;;8.23;7.47;;;;;;;-144.30;26.89;82078.16;5070140;28;20196;-52
2023/05/20 08:09:12;;;;;;;9.10;8.40;;;;;;;-144.30;26.87;82167.53;5070033;28;20208;-57
2023/05/20 08:11:39;;;;;;;8.88;8.05;;;;;;;-144.30;26.89;82113.91;5070190;28;20631;-58
2023/05/20 08:14:06;;;;;;;12.88;7.95;;;;;;;-144.30;26.90;82102.00;5069792;28;20275;-57
2023/05/20 08:16:36;;;;;;;10.95;8.85;;;;;;;-144.30;26.96;82193.38;5070035;28;20309;-57
2023/05/20 08:19:03;;;;;;;8.57;7.30;;;;;;;-144.30;27.53;82419.78;5070006;28;20206;-52
2023/05/20 08:21:31;;;;;;;8.55;7.78;;;;;;;-144.30;27.39;82479.38;5069724;28;20267;-57
2023/05/20 08:23:57;;;;;;;8.88;8.15;;;;;;;-144.30;28.28;82695.88;5070367;28;20229;-57
2023/05/20 08:26:25;;;;;;;8.35;7.25;;;;;;;-144.30;28.37;82626.34;5070197;28;25160;-57
2023/05/20 08:28:52;;;;;;;7.85;7.32;;;;;;;-144.30;28.43;82725.69;5069935;28;20294;-58
2023/05/20 08:31:19;;;;;;;9.60;7.90;;;;;;;-144.30;28.22;82687.94;5069750;28;20752;-57
2023/05/20 08:33:48;;;;;;;10.02;8.40;;;;;;;-144.30;28.76;82765.41;5069699;28;20682;-52
2023/05/20 08:36:15;;;;;;;12.98;7.28;;;;;;;-144.30;28.95;82811.09;5069842;28;20578;-58
2023/05/20 08:38:42;;;;;;;8.00;7.40;;;;;;;-144.30;28.78;82834.94;5069989;28;20289;-57
2023/05/20 08:41:09;;;;;;;8.63;7.72;;;;;;;-144.30;29.09;82769.38;5069097;28;20201;-60
2023/05/20 08:43:37;;;;;;;7.80;6.95;;;;;;;-144.30;29.09;82932.28;5067991;28;20744;-53
2023/05/20 08:46:05;;;;;;;8.15;7.15;;;;;;;-144.30;30.13;83019.69;5066680;28;20208;-52
2023/05/20 08:48:34;;;;;;;9.13;7.45;;;;;;;-144.30;30.58;83134.91;5068492;28;20267;-53
2023/05/20 08:51:03;;;;;;;9.45;7.85;;;;;;;-144.30;31.47;83309.72;5068769;28;20205;-52
2023/05/20 08:53:31;;;;;;;9.35;7.88;;;;;;;-144.30;31.98;83438.88;5072362;28;20241;-51
2023/05/20 08:56:01;;;;;;;8.85;8.05;;;;;;;-144.30;32.53;83353.44;5073760;28;20270;-53
2023/05/20 08:58:28;;;;;;;10.30;8.77;;;;;;;-144.30;32.32;83333.56;5073594;28;20188;-55
2023/05/20 09:00:55;;;;;;;8.15;7.38;;;;;;;-144.30;32.94;83424.97;5073619;28;20200;-58
2023/05/20 09:03:23;;;;;;;9.35;6.85;;;;;;;-144.30;32.53;83389.19;5073317;28;20219;-57
2023/05/20 09:05:50;;;;;;;8.35;7.15;;;;;;;-144.30;32.18;83262.03;5073231;28;20374;-56
2023/05/20 09:08:18;;;;;;;7.20;6.65;;;;;;;-144.30;32.22;83597.81;5073295;28;20219;-56
2023/05/20 09:10:45;;;;;;;7.20;6.70;;;;;;;-144.30;32.59;83548.16;5073097;28;20195;-56
2023/05/20 09:13:12;;;;;;;7.35;6.70;;;;;;;-144.30;33.22;83661.41;5073306;28;20690;-55
2023/05/20 09:15:39;;;;;;;9.35;6.60;;;;;;;-144.30;34.32;83790.56;5072810;28;20331;-58
2023/05/20 09:18:07;;;;;;;7.47;6.75;;;;;;;-144.30;35.06;83738.88;5073251;28;20719;-57
2023/05/20 09:20:35;;;;;;;7.57;6.97;;;;;;;-144.30;34.40;83734.91;5072999;28;20594;-56
2023/05/20 09:23:05;;;;;;;7.18;6.28;;;;;;;-144.30;34.74;83854.13;5055189;28;20236;-57
2023/05/20 09:25:34;;;;;;;7.40;6.85;;;;;;;-144.30;35.25;83877.97;5065005;28;21032;-58
2023/05/20 09:28:02;;;;;;;7.00;6.43;;;;;;;-144.30;35.61;83897.84;5068206;28;20251;-55
2023/05/20 09:30:28;;;;;;;7.85;7.25;;;;;;;-144.30;36.67;83979.31;5063040;28;20735;-58
2023/05/20 09:32:56;;;;;;;7.80;6.88;;;;;;;-144.30;37.01;83949.50;5052395;28;20220;-55
2023/05/20 09:35:24;;;;;;;6.97;6.35;;;;;;;-144.30;37.69;84046.88;5052866;28;20219;-57
2023/05/20 09:37:53;;;;;;;8.10;7.43;;;;;;;-144.30;38.28;83963.44;5052360;28;20221;-64
2023/05/20 09:40:23;;;;;;;7.72;6.60;;;;;;;-144.30;38.58;83945.53;5052657;28;20223;-66
2023/05/20 09:42:54;;;;;;;7.60;7.00;;;;;;;-144.30;38.36;83901.81;5051771;28;20243;-56
2023/05/20 09:45:23;;;;;;;9.95;7.55;;;;;;;-144.30;38.98;83913.75;5059727;28;20227;-66
2023/05/20 09:47:51;;;;;;;7.63;7.13;;;;;;;-144.30;38.39;83858.09;5072069;28;20691;-65
2023/05/20 09:50:20;;;;;;;7.40;6.80;;;;;;;-144.30;37.60;83885.94;5071358;28;20230;-64
2023/05/20 09:52:49;;;;;;;8.07;7.30;;;;;;;-144.30;37.23;83876.00;5072348;28;20199;-66
2023/05/20 09:55:16;;;;;;;7.00;6.53;;;;;;;-144.30;37.21;84452.28;5069516;28;20228;-56
2023/05/20 09:57:43;;;;;;;6.32;5.93;;;;;;;-144.30;36.29;83826.31;5052208;28;20228;-55
2023/05/20 10:00:16;;;;;;;7.85;6.60;;;;;;;-144.30;35.87;83866.06;5052482;28;20217;-64
2023/05/20 10:02:44;;;;;;;7.45;6.50;;;;;;;-144.30;36.67;83866.06;5061749;28;20254;-64
2023/05/20 10:05:17;;;;;;;7.95;6.80;;;;;;;-144.30;37.74;84283.38;5070825;28;20524;-65
2023/05/20 10:08:22;;;;;;;6.72;6.22;;;;;;;-144.30;38.22;84023.03;5072290;28;20195;-66
2023/05/20 10:10:54;;;;;;;6.88;6.22;;;;;;;-144.30;38.54;84009.13;5070429;28;20275;-58
2023/05/20 10:13:37;;;;;;;7.13;6.65;;;;;;;-144.30;38.33;84009.13;5064121;28;20197;-66
2023/05/20 10:16:22;;;;;;;11.52;6.90;;;;;;;-144.30;39.11;84029.00;5065978;28;20202;-66
2023/05/20 10:18:56;;;;;;;8.07;6.43;;;;;;;-144.30;39.23;83989.25;5065368;28;20204;-64
2023/05/20 10:21:25;;;;;;;7.25;6.60;;;;;;;-144.30;39.07;83997.22;5069979;28;20209;-65
2023/05/20 10:23:52;;;;;;;6.88;6.38;;;;;;;-144.30;38.63;83997.22;5069793;28;20649;-64
2023/05/20 10:26:21;;;;;;;10.40;7.15;;;;;;;-144.30;39.16;83979.31;5072630;28;20199;-65
2023/05/20 10:28:49;;;;;;;7.53;6.82;;;;;;;-144.30;37.08;83975.34;5072647;28;20775;-66
2023/05/20 10:31:21;;;;;;;7.28;6.78;;;;;;;-144.30;36.24;84064.78;5071902;28;20188;-64
2023/05/20 10:33:48;;;;;;;18.75;7.90;;;;;;;-144.30;36.42;84072.72;5071446;28;20258;-65
2023/05/20 10:36:26;;;;;;;7.32;6.72;;;;;;;-144.30;36.24;84092.59;5072001;28;20236;-57
2023/05/20 10:38:54;;;;;;;13.15;7.20;;;;;;;-144.30;36.01;84060.78;5071559;28;20207;-65
2023/05/20 10:41:23;;;;;;;6.78;6.32;;;;;;;-144.30;35.37;84042.91;5072160;28;20196;-64
2023/05/20 10:44:01;;;;;;;7.85;6.65;;;;;;;-144.30;36.14;84062.78;5072341;28;20649;-57
2023/05/20 10:46:30;;;;;;;8.20;6.40;;;;;;;-144.30;35.79;84076.69;5072096;28;20199;-57
2023/05/20 10:48:57;;;;;;;6.40;5.80;;;;;;;-144.30;36.40;84044.91;5071969;28;20231;-56
2023/05/20 10:51:27;;;;;;;8.23;6.43;;;;;;;-144.30;37.96;84100.53;5071304;28;20210;-56
2023/05/20 10:53:56;;;;;;;11.95;7.15;;;;;;;-144.30;39.17;84221.75;5072093;28;20546;-56
2023/05/20 10:56:24;;;;;;;7.90;7.15;;;;;;;-144.30;39.80;84211.81;5072163;28;20238;-56
2023/05/20 10:58:52;;;;;;;7.10;6.60;;;;;;;-144.30;40.15;84225.75;5072033;28;20210;-56
2023/05/20 11:01:24;;;;;;;8.32;6.38;;;;;;;-144.30;40.07;84263.50;5071228;28;20234;-57
2023/05/20 11:03:54;;;;;;;9.82;6.60;;;;;;;-144.30;40.65;84281.38;5071494;28;20323;-56
2023/05/20 11:06:27;;;;;;;12.25;6.68;;;;;;;-144.30;40.65;84305.22;5071664;28;20196;-63
2023/05/20 11:08:54;;;;;;;11.65;6.28;;;;;;;-144.30;40.26;84315.16;5072090;28;21023;-65
2023/05/20 11:11:22;;;;;;;6.28;5.35;;;;;;;-144.30;39.55;84342.97;5070909;28;20210;-65
2023/05/20 11:13:51;;;;;;;5.60;5.20;;;;;;;-144.30;40.16;84277.41;5068500;28;20706;-67